sensor_id;sensor_type;location;lat;lon;timestamp;P1;durP1;ratioP1;P2;durP2;ratioP2
19043;SDS011;9654;52.302;8.120;2022-10-16T00:02:13;9.63;;;4.80;;
19043;SDS011;9654;52.302;8.120;2022-10-16T00:04:39;8.50;;;5.07;;
19043;SDS011;9654;52.302;8.120;2022-10-16T00:07:06;7.07;;;4.70;;
19043;SDS011;9654;52.302;8.120;2022-10-16T00:09:33;12.10;;;5.13;;
19043;SDS011;9654;52.302;8.120;2022-10-16T00:12:01;9.43;;;4.43;;
19043;SDS011;9654;52.302;8.120;2022-10-16T00:14:28;8.63;;;4.83;;
19043;SDS011;9654;52.302;8.120;2022-10-16T00:16:55;8.90;;;4.87;;
19043;SDS011;9654;52.302;8.120;2022-10-16T00:19:22;8.63;;;4.63;;
19043;SDS011;9654;52.302;8.120;2022-10-16T00:21:49;7.47;;;4.80;;
19043;SDS011;9654;52.302;8.120;2022-10-16T00:24:16;7.93;;;4.50;;
19043;SDS011;9654;52.302;8.120;2022-10-16T00:26:42;10.07;;;5.07;;
19043;SDS011;9654;52.302;8.120;2022-10-16T00:29:10;9.80;;;5.30;;
19043;SDS011;9654;52.302;8.120;2022-10-16T00:31:37;10.00;;;4.70;;
19043;SDS011;9654;52.302;8.120;2022-10-16T00:34:04;10.03;;;5.00;;
19043;SDS011;9654;52.302;8.120;2022-10-16T00:36:31;10.67;;;5.37;;
19043;SDS011;9654;52.302;8.120;2022-10-16T00:38:58;11.73;;;5.17;;
19043;SDS011;9654;52.302;8.120;2022-10-16T00:41:26;9.30;;;5.30;;
19043;SDS011;9654;52.302;8.120;2022-10-16T00:43:55;13.73;;;5.87;;
19043;SDS011;9654;52.302;8.120;2022-10-16T00:46:24;16.33;;;5.77;;
19043;SDS011;9654;52.302;8.120;2022-10-16T00:48:54;13.53;;;6.07;;
19043;SDS011;9654;52.302;8.120;2022-10-16T00:51:25;10.43;;;5.60;;
19043;SDS011;9654;52.302;8.120;2022-10-16T00:53:56;15.93;;;6.33;;
19043;SDS011;9654;52.302;8.120;2022-10-16T00:56:23;10.30;;;5.90;;
19043;SDS011;9654;52.302;8.120;2022-10-16T00:58:50;9.27;;;6.53;;
19043;SDS011;9654;52.302;8.120;2022-10-16T01:01:16;10.13;;;6.03;;
19043;SDS011;9654;52.302;8.120;2022-10-16T01:03:45;16.13;;;7.30;;
19043;SDS011;9654;52.302;8.120;2022-10-16T01:06:16;12.40;;;7.27;;
19043;SDS011;9654;52.302;8.120;2022-10-16T01:08:52;16.17;;;7.20;;
19043;SDS011;9654;52.302;8.120;2022-10-16T01:11:29;13.20;;;7.63;;
19043;SDS011;9654;52.302;8.120;2022-10-16T01:14:00;13.67;;;7.80;;
19043;SDS011;9654;52.302;8.120;2022-10-16T01:16:34;11.03;;;7.17;;
19043;SDS011;9654;52.302;8.120;2022-10-16T01:19:09;13.73;;;6.70;;
19043;SDS011;9654;52.302;8.120;2022-10-16T01:21:42;20.67;;;7.87;;
19043;SDS011;9654;52.302;8.120;2022-10-16T01:24:15;13.77;;;7.60;;
19043;SDS011;9654;52.302;8.120;2022-10-16T01:27:08;15.47;;;7.50;;
19043;SDS011;9654;52.302;8.120;2022-10-16T01:29:38;12.30;;;7.53;;
19043;SDS011;9654;52.302;8.120;2022-10-16T01:32:11;16.30;;;8.40;;
19043;SDS011;9654;52.302;8.120;2022-10-16T01:34:45;16.47;;;7.77;;
19043;SDS011;9654;52.302;8.120;2022-10-16T01:37:16;16.33;;;7.40;;
19043;SDS011;9654;52.302;8.120;2022-10-16T01:39:48;13.20;;;7.27;;
19043;SDS011;9654;52.302;8.120;2022-10-16T01:42:19;14.57;;;7.23;;
19043;SDS011;9654;52.302;8.120;2022-10-16T01:44:48;14.10;;;7.30;;
19043;SDS011;9654;52.302;8.120;2022-10-16T01:47:17;15.40;;;6.87;;
19043;SDS011;9654;52.302;8.120;2022-10-16T01:49:46;13.17;;;7.00;;
19043;SDS011;9654;52.302;8.120;2022-10-16T01:52:14;14.40;;;7.70;;
19043;SDS011;9654;52.302;8.120;2022-10-16T01:54:44;11.90;;;7.40;;
19043;SDS011;9654;52.302;8.120;2022-10-16T01:57:13;13.30;;;8.27;;
19043;SDS011;9654;52.302;8.120;2022-10-16T01:59:46;16.13;;;9.80;;
19043;SDS011;9654;52.302;8.120;2022-10-16T02:02:15;20.80;;;10.30;;
19043;SDS011;9654;52.302;8.120;2022-10-16T02:04:46;18.63;;;10.30;;
19043;SDS011;9654;52.302;8.120;2022-10-16T02:07:15;21.27;;;11.37;;
19043;SDS011;9654;52.302;8.120;2022-10-16T02:09:42;17.97;;;11.60;;
19043;SDS011;9654;52.302;8.120;2022-10-16T02:12:10;25.27;;;12.60;;
19043;SDS011;9654;52.302;8.120;2022-10-16T02:14:46;20.70;;;13.10;;
19043;SDS011;9654;52.302;8.120;2022-10-16T02:17:13;22.73;;;12.53;;
19043;SDS011;9654;52.302;8.120;2022-10-16T02:19:42;21.10;;;12.40;;
19043;SDS011;9654;52.302;8.120;2022-10-16T02:22:12;20.63;;;13.13;;
19043;SDS011;9654;52.302;8.120;2022-10-16T02:24:46;24.90;;;14.27;;
19043;SDS011;9654;52.302;8.120;2022-10-16T02:27:18;25.87;;;14.90;;
19043;SDS011;9654;52.302;8.120;2022-10-16T02:29:52;21.63;;;14.30;;
19043;SDS011;9654;52.302;8.120;2022-10-16T02:32:24;21.33;;;12.13;;
19043;SDS011;9654;52.302;8.120;2022-10-16T02:34:56;22.47;;;13.13;;
19043;SDS011;9654;52.302;8.120;2022-10-16T02:37:24;26.20;;;13.97;;
19043;SDS011;9654;52.302;8.120;2022-10-16T02:39:53;23.27;;;12.90;;
19043;SDS011;9654;52.302;8.120;2022-10-16T02:42:26;19.60;;;13.27;;
19043;SDS011;9654;52.302;8.120;2022-10-16T02:44:55;21.50;;;13.57;;
19043;SDS011;9654;52.302;8.120;2022-10-16T02:47:22;18.80;;;12.77;;
19043;SDS011;9654;52.302;8.120;2022-10-16T02:49:49;22.77;;;13.17;;
19043;SDS011;9654;52.302;8.120;2022-10-16T02:52:16;21.90;;;13.10;;
19043;SDS011;9654;52.302;8.120;2022-10-16T02:54:42;23.13;;;14.03;;
19043;SDS011;9654;52.302;8.120;2022-10-16T02:57:09;22.20;;;12.87;;
19043;SDS011;9654;52.302;8.120;2022-10-16T02:59:36;22.10;;;13.57;;
19043;SDS011;9654;52.302;8.120;2022-10-16T03:02:04;22.10;;;13.37;;
19043;SDS011;9654;52.302;8.120;2022-10-16T03:04:31;28.77;;;13.07;;
19043;SDS011;9654;52.302;8.120;2022-10-16T03:06:58;22.77;;;12.87;;
19043;SDS011;9654;52.302;8.120;2022-10-16T03:09:24;25.73;;;13.07;;
19043;SDS011;9654;52.302;8.120;2022-10-16T03:11:51;18.87;;;11.33;;
19043;SDS011;9654;52.302;8.120;2022-10-16T03:14:18;20.27;;;12.60;;
19043;SDS011;9654;52.302;8.120;2022-10-16T03:16:44;20.40;;;12.00;;
19043;SDS011;9654;52.302;8.120;2022-10-16T03:19:12;23.10;;;12.10;;
19043;SDS011;9654;52.302;8.120;2022-10-16T03:21:39;19.83;;;11.93;;
19043;SDS011;9654;52.302;8.120;2022-10-16T03:24:06;26.37;;;11.67;;
19043;SDS011;9654;52.302;8.120;2022-10-16T03:26:33;19.87;;;11.53;;
19043;SDS011;9654;52.302;8.120;2022-10-16T03:28:59;18.77;;;12.33;;
19043;SDS011;9654;52.302;8.120;2022-10-16T03:31:27;22.23;;;12.57;;
19043;SDS011;9654;52.302;8.120;2022-10-16T03:33:54;21.87;;;12.17;;
19043;SDS011;9654;52.302;8.120;2022-10-16T03:36:22;17.73;;;11.97;;
19043;SDS011;9654;52.302;8.120;2022-10-16T03:38:49;22.73;;;13.60;;
19043;SDS011;9654;52.302;8.120;2022-10-16T03:41:15;22.43;;;13.17;;
19043;SDS011;9654;52.302;8.120;2022-10-16T03:43:42;18.67;;;12.37;;
19043;SDS011;9654;52.302;8.120;2022-10-16T03:46:09;24.53;;;13.60;;
19043;SDS011;9654;52.302;8.120;2022-10-16T03:48:36;22.10;;;12.40;;
19043;SDS011;9654;52.302;8.120;2022-10-16T03:51:04;18.80;;;12.93;;
19043;SDS011;9654;52.302;8.120;2022-10-16T03:53:33;21.13;;;13.17;;
19043;SDS011;9654;52.302;8.120;2022-10-16T03:56:00;19.73;;;13.27;;
19043;SDS011;9654;52.302;8.120;2022-10-16T03:58:26;22.07;;;13.10;;
19043;SDS011;9654;52.302;8.120;2022-10-16T04:00:54;19.23;;;13.13;;
19043;SDS011;9654;52.302;8.120;2022-10-16T04:03:20;23.60;;;13.23;;
19043;SDS011;9654;52.302;8.120;2022-10-16T04:05:48;24.77;;;13.70;;
19043;SDS011;9654;52.302;8.120;2022-10-16T04:08:14;20.33;;;13.57;;
19043;SDS011;9654;52.302;8.120;2022-10-16T04:10:43;20.10;;;12.50;;
19043;SDS011;9654;52.302;8.120;2022-10-16T04:13:10;19.13;;;12.57;;
19043;SDS011;9654;52.302;8.120;2022-10-16T04:15:37;21.30;;;12.40;;
19043;SDS011;9654;52.302;8.120;2022-10-16T04:18:04;16.67;;;11.67;;
19043;SDS011;9654;52.302;8.120;2022-10-16T04:20:31;17.70;;;10.93;;
19043;SDS011;9654;52.302;8.120;2022-10-16T04:22:58;18.90;;;11.27;;
19043;SDS011;9654;52.302;8.120;2022-10-16T04:25:25;17.23;;;10.77;;
19043;SDS011;9654;52.302;8.120;2022-10-16T04:27:53;18.50;;;11.90;;
19043;SDS011;9654;52.302;8.120;2022-10-16T04:30:21;19.07;;;11.00;;
19043;SDS011;9654;52.302;8.120;2022-10-16T04:32:47;16.27;;;10.03;;
19043;SDS011;9654;52.302;8.120;2022-10-16T04:35:15;16.07;;;10.70;;
19043;SDS011;9654;52.302;8.120;2022-10-16T04:37:42;16.87;;;10.40;;
19043;SDS011;9654;52.302;8.120;2022-10-16T04:40:09;14.80;;;9.67;;
19043;SDS011;9654;52.302;8.120;2022-10-16T04:42:36;17.10;;;10.27;;
19043;SDS011;9654;52.302;8.120;2022-10-16T04:45:04;16.93;;;10.10;;
19043;SDS011;9654;52.302;8.120;2022-10-16T04:47:32;13.87;;;9.77;;
19043;SDS011;9654;52.302;8.120;2022-10-16T04:49:58;13.57;;;9.70;;
19043;SDS011;9654;52.302;8.120;2022-10-16T04:52:26;15.77;;;9.70;;
19043;SDS011;9654;52.302;8.120;2022-10-16T04:54:53;18.73;;;9.73;;
19043;SDS011;9654;52.302;8.120;2022-10-16T04:57:21;15.33;;;8.80;;
19043;SDS011;9654;52.302;8.120;2022-10-16T04:59:48;11.07;;;7.60;;
19043;SDS011;9654;52.302;8.120;2022-10-16T05:02:16;11.43;;;8.07;;
19043;SDS011;9654;52.302;8.120;2022-10-16T05:04:43;12.70;;;8.57;;
19043;SDS011;9654;52.302;8.120;2022-10-16T05:07:09;10.40;;;7.43;;
19043;SDS011;9654;52.302;8.120;2022-10-16T05:09:36;12.93;;;8.00;;
19043;SDS011;9654;52.302;8.120;2022-10-16T05:12:03;9.77;;;6.73;;
19043;SDS011;9654;52.302;8.120;2022-10-16T05:14:30;11.63;;;7.67;;
19043;SDS011;9654;52.302;8.120;2022-10-16T05:16:56;8.60;;;7.47;;
19043;SDS011;9654;52.302;8.120;2022-10-16T05:19:25;11.17;;;6.60;;
19043;SDS011;9654;52.302;8.120;2022-10-16T05:21:51;15.00;;;7.27;;
19043;SDS011;9654;52.302;8.120;2022-10-16T05:24:18;8.53;;;5.97;;
19043;SDS011;9654;52.302;8.120;2022-10-16T05:26:45;11.73;;;6.20;;
19043;SDS011;9654;52.302;8.120;2022-10-16T05:29:12;9.97;;;6.23;;
19043;SDS011;9654;52.302;8.120;2022-10-16T05:31:38;8.10;;;6.00;;
19043;SDS011;9654;52.302;8.120;2022-10-16T05:34:05;11.40;;;6.07;;
19043;SDS011;9654;52.302;8.120;2022-10-16T05:36:33;8.63;;;5.80;;
19043;SDS011;9654;52.302;8.120;2022-10-16T05:39:00;9.30;;;6.20;;
19043;SDS011;9654;52.302;8.120;2022-10-16T05:41:26;12.03;;;6.10;;
19043;SDS011;9654;52.302;8.120;2022-10-16T05:43:53;7.80;;;6.10;;
19043;SDS011;9654;52.302;8.120;2022-10-16T05:46:20;8.10;;;5.67;;
19043;SDS011;9654;52.302;8.120;2022-10-16T05:48:47;10.97;;;5.77;;
19043;SDS011;9654;52.302;8.120;2022-10-16T05:51:14;5.90;;;5.10;;
19043;SDS011;9654;52.302;8.120;2022-10-16T05:53:42;8.93;;;4.87;;
19043;SDS011;9654;52.302;8.120;2022-10-16T05:56:10;6.30;;;5.00;;
19043;SDS011;9654;52.302;8.120;2022-10-16T05:58:38;7.17;;;5.07;;
19043;SDS011;9654;52.302;8.120;2022-10-16T06:01:07;9.87;;;4.97;;
19043;SDS011;9654;52.302;8.120;2022-10-16T06:03:36;8.63;;;5.87;;
19043;SDS011;9654;52.302;8.120;2022-10-16T06:06:10;6.40;;;4.70;;
19043;SDS011;9654;52.302;8.120;2022-10-16T06:08:37;12.47;;;5.00;;
19043;SDS011;9654;52.302;8.120;2022-10-16T06:11:06;6.60;;;5.07;;
19043;SDS011;9654;52.302;8.120;2022-10-16T06:13:34;6.37;;;4.60;;
19043;SDS011;9654;52.302;8.120;2022-10-16T06:16:01;5.57;;;4.27;;
19043;SDS011;9654;52.302;8.120;2022-10-16T06:18:29;7.60;;;4.43;;
19043;SDS011;9654;52.302;8.120;2022-10-16T06:20:57;7.27;;;4.40;;
19043;SDS011;9654;52.302;8.120;2022-10-16T06:23:24;5.60;;;4.13;;
19043;SDS011;9654;52.302;8.120;2022-10-16T06:25:51;6.77;;;3.90;;
19043;SDS011;9654;52.302;8.120;2022-10-16T06:28:19;4.53;;;3.37;;
19043;SDS011;9654;52.302;8.120;2022-10-16T06:30:46;8.17;;;3.70;;
19043;SDS011;9654;52.302;8.120;2022-10-16T06:33:12;8.63;;;3.80;;
19043;SDS011;9654;52.302;8.120;2022-10-16T06:35:39;7.60;;;3.33;;
19043;SDS011;9654;52.302;8.120;2022-10-16T06:38:06;5.63;;;3.60;;
19043;SDS011;9654;52.302;8.120;2022-10-16T06:40:32;6.90;;;3.40;;
19043;SDS011;9654;52.302;8.120;2022-10-16T06:42:59;8.00;;;3.60;;
19043;SDS011;9654;52.302;8.120;2022-10-16T06:45:27;6.33;;;3.13;;
19043;SDS011;9654;52.302;8.120;2022-10-16T06:47:54;6.20;;;2.77;;
19043;SDS011;9654;52.302;8.120;2022-10-16T06:50:20;2.67;;;2.47;;
19043;SDS011;9654;52.302;8.120;2022-10-16T06:52:47;2.77;;;2.33;;
19043;SDS011;9654;52.302;8.120;2022-10-16T06:55:14;2.50;;;2.30;;
19043;SDS011;9654;52.302;8.120;2022-10-16T06:57:42;6.80;;;2.47;;
19043;SDS011;9654;52.302;8.120;2022-10-16T07:00:09;4.27;;;2.20;;
19043;SDS011;9654;52.302;8.120;2022-10-16T07:02:37;3.90;;;2.17;;
19043;SDS011;9654;52.302;8.120;2022-10-16T07:05:05;3.23;;;2.17;;
19043;SDS011;9654;52.302;8.120;2022-10-16T07:07:32;3.43;;;2.30;;
19043;SDS011;9654;52.302;8.120;2022-10-16T07:09:58;4.83;;;2.60;;
19043;SDS011;9654;52.302;8.120;2022-10-16T07:12:25;2.43;;;2.20;;
19043;SDS011;9654;52.302;8.120;2022-10-16T07:14:52;2.97;;;2.60;;
19043;SDS011;9654;52.302;8.120;2022-10-16T07:17:20;3.47;;;2.57;;
19043;SDS011;9654;52.302;8.120;2022-10-16T07:19:51;3.67;;;2.20;;
19043;SDS011;9654;52.302;8.120;2022-10-16T07:22:18;2.10;;;1.70;;
19043;SDS011;9654;52.302;8.120;2022-10-16T07:24:45;3.30;;;2.37;;
19043;SDS011;9654;52.302;8.120;2022-10-16T07:27:11;3.47;;;2.53;;
19043;SDS011;9654;52.302;8.120;2022-10-16T07:29:38;3.63;;;2.20;;
19043;SDS011;9654;52.302;8.120;2022-10-16T07:32:05;3.77;;;2.23;;
19043;SDS011;9654;52.302;8.120;2022-10-16T07:34:32;2.63;;;2.30;;
19043;SDS011;9654;52.302;8.120;2022-10-16T07:37:00;4.30;;;2.30;;
19043;SDS011;9654;52.302;8.120;2022-10-16T07:39:26;5.17;;;2.50;;
19043;SDS011;9654;52.302;8.120;2022-10-16T07:41:53;2.90;;;2.57;;
19043;SDS011;9654;52.302;8.120;2022-10-16T07:44:20;2.50;;;2.30;;
19043;SDS011;9654;52.302;8.120;2022-10-16T07:46:47;3.30;;;2.43;;
19043;SDS011;9654;52.302;8.120;2022-10-16T07:49:14;4.43;;;2.50;;
19043;SDS011;9654;52.302;8.120;2022-10-16T07:51:40;4.70;;;2.73;;
19043;SDS011;9654;52.302;8.120;2022-10-16T07:54:09;2.43;;;2.27;;
19043;SDS011;9654;52.302;8.120;2022-10-16T07:56:36;3.13;;;2.00;;
19043;SDS011;9654;52.302;8.120;2022-10-16T07:59:02;2.77;;;2.57;;
19043;SDS011;9654;52.302;8.120;2022-10-16T08:01:29;6.67;;;2.43;;
19043;SDS011;9654;52.302;8.120;2022-10-16T08:03:56;4.27;;;2.10;;
19043;SDS011;9654;52.302;8.120;2022-10-16T08:06:22;5.37;;;2.50;;
19043;SDS011;9654;52.302;8.120;2022-10-16T08:08:49;3.50;;;2.47;;
19043;SDS011;9654;52.302;8.120;2022-10-16T08:11:17;7.00;;;2.53;;
19043;SDS011;9654;52.302;8.120;2022-10-16T08:13:44;3.10;;;2.43;;
19043;SDS011;9654;52.302;8.120;2022-10-16T08:16:11;2.17;;;1.93;;
19043;SDS011;9654;52.302;8.120;2022-10-16T08:18:38;2.87;;;2.17;;
19043;SDS011;9654;52.302;8.120;2022-10-16T08:21:06;4.07;;;2.10;;
19043;SDS011;9654;52.302;8.120;2022-10-16T08:23:37;3.03;;;2.30;;
19043;SDS011;9654;52.302;8.120;2022-10-16T08:26:04;4.70;;;2.17;;
19043;SDS011;9654;52.302;8.120;2022-10-16T08:28:33;4.70;;;2.30;;
19043;SDS011;9654;52.302;8.120;2022-10-16T08:31:04;2.73;;;1.90;;
19043;SDS011;9654;52.302;8.120;2022-10-16T08:33:33;6.50;;;2.30;;
19043;SDS011;9654;52.302;8.120;2022-10-16T08:36:00;2.03;;;1.83;;
19043;SDS011;9654;52.302;8.120;2022-10-16T08:38:27;3.50;;;2.30;;
19043;SDS011;9654;52.302;8.120;2022-10-16T08:40:54;3.77;;;2.27;;
19043;SDS011;9654;52.302;8.120;2022-10-16T08:43:35;8.17;;;2.30;;
19043;SDS011;9654;52.302;8.120;2022-10-16T08:46:17;5.30;;;2.00;;
19043;SDS011;9654;52.302;8.120;2022-10-16T08:48:50;2.57;;;1.93;;
19043;SDS011;9654;52.302;8.120;2022-10-16T08:51:19;5.10;;;2.10;;
19043;SDS011;9654;52.302;8.120;2022-10-16T08:53:51;4.57;;;2.60;;
19043;SDS011;9654;52.302;8.120;2022-10-16T08:56:21;4.43;;;2.47;;
19043;SDS011;9654;52.302;8.120;2022-10-16T08:58:49;5.37;;;2.30;;
19043;SDS011;9654;52.302;8.120;2022-10-16T09:01:18;2.53;;;2.33;;
19043;SDS011;9654;52.302;8.120;2022-10-16T09:04:11;6.73;;;1.57;;
19043;SDS011;9654;52.302;8.120;2022-10-16T09:07:08;4.20;;;1.57;;
19043;SDS011;9654;52.302;8.120;2022-10-16T09:09:48;5.00;;;2.23;;
19043;SDS011;9654;52.302;8.120;2022-10-16T09:12:27;3.83;;;2.13;;
19043;SDS011;9654;52.302;8.120;2022-10-16T09:15:02;2.90;;;1.90;;
19043;SDS011;9654;52.302;8.120;2022-10-16T09:17:41;2.60;;;1.80;;
19043;SDS011;9654;52.302;8.120;2022-10-16T09:20:29;5.30;;;1.80;;
19043;SDS011;9654;52.302;8.120;2022-10-16T09:23:14;4.77;;;1.70;;
19043;SDS011;9654;52.302;8.120;2022-10-16T09:25:44;5.27;;;1.60;;
19043;SDS011;9654;52.302;8.120;2022-10-16T09:28:15;7.37;;;1.60;;
19043;SDS011;9654;52.302;8.120;2022-10-16T09:30:44;3.27;;;1.40;;
19043;SDS011;9654;52.302;8.120;2022-10-16T09:33:13;3.20;;;1.90;;
19043;SDS011;9654;52.302;8.120;2022-10-16T09:35:41;4.67;;;1.70;;
19043;SDS011;9654;52.302;8.120;2022-10-16T09:38:13;4.67;;;1.73;;
19043;SDS011;9654;52.302;8.120;2022-10-16T09:40:47;7.70;;;1.80;;
19043;SDS011;9654;52.302;8.120;2022-10-16T09:43:19;5.97;;;1.77;;
19043;SDS011;9654;52.302;8.120;2022-10-16T09:45:57;3.23;;;1.60;;
19043;SDS011;9654;52.302;8.120;2022-10-16T09:48:27;1.40;;;1.30;;
19043;SDS011;9654;52.302;8.120;2022-10-16T09:50:58;2.17;;;1.20;;
19043;SDS011;9654;52.302;8.120;2022-10-16T09:53:36;1.60;;;1.30;;
19043;SDS011;9654;52.302;8.120;2022-10-16T09:56:09;6.47;;;2.50;;
19043;SDS011;9654;52.302;8.120;2022-10-16T09:58:41;4.07;;;1.60;;
19043;SDS011;9654;52.302;8.120;2022-10-16T10:01:11;3.83;;;1.40;;
19043;SDS011;9654;52.302;8.120;2022-10-16T10:03:40;3.13;;;1.33;;
19043;SDS011;9654;52.302;8.120;2022-10-16T10:06:19;4.40;;;1.40;;
19043;SDS011;9654;52.302;8.120;2022-10-16T10:08:59;6.83;;;1.73;;
19043;SDS011;9654;52.302;8.120;2022-10-16T10:11:36;5.83;;;1.57;;
19043;SDS011;9654;52.302;8.120;2022-10-16T10:14:04;4.37;;;1.23;;
19043;SDS011;9654;52.302;8.120;2022-10-16T10:16:33;5.53;;;1.50;;
19043;SDS011;9654;52.302;8.120;2022-10-16T10:19:00;5.90;;;1.33;;
19043;SDS011;9654;52.302;8.120;2022-10-16T10:21:27;3.53;;;1.20;;
19043;SDS011;9654;52.302;8.120;2022-10-16T10:23:56;5.47;;;1.33;;
19043;SDS011;9654;52.302;8.120;2022-10-16T10:26:25;5.33;;;1.20;;
19043;SDS011;9654;52.302;8.120;2022-10-16T10:28:55;4.93;;;1.40;;
19043;SDS011;9654;52.302;8.120;2022-10-16T10:31:32;4.43;;;1.53;;
19043;SDS011;9654;52.302;8.120;2022-10-16T10:34:07;3.43;;;1.10;;
19043;SDS011;9654;52.302;8.120;2022-10-16T10:36:52;3.70;;;1.20;;
19043;SDS011;9654;52.302;8.120;2022-10-16T10:39:28;2.30;;;0.97;;
19043;SDS011;9654;52.302;8.120;2022-10-16T10:42:16;1.87;;;1.03;;
19043;SDS011;9654;52.302;8.120;2022-10-16T10:45:01;3.40;;;1.40;;
19043;SDS011;9654;52.302;8.120;2022-10-16T10:47:42;3.83;;;1.03;;
19043;SDS011;9654;52.302;8.120;2022-10-16T10:50:20;6.17;;;1.03;;
19043;SDS011;9654;52.302;8.120;2022-10-16T10:52:53;4.73;;;1.17;;
19043;SDS011;9654;52.302;8.120;2022-10-16T10:55:28;5.83;;;1.67;;
19043;SDS011;9654;52.302;8.120;2022-10-16T10:58:06;3.40;;;1.20;;
19043;SDS011;9654;52.302;8.120;2022-10-16T11:00:45;6.37;;;1.17;;
19043;SDS011;9654;52.302;8.120;2022-10-16T11:03:25;4.07;;;1.17;;
19043;SDS011;9654;52.302;8.120;2022-10-16T11:06:02;1.90;;;1.00;;
19043;SDS011;9654;52.302;8.120;2022-10-16T11:08:33;3.13;;;1.07;;
19043;SDS011;9654;52.302;8.120;2022-10-16T11:11:06;2.33;;;0.90;;
19043;SDS011;9654;52.302;8.120;2022-10-16T11:13:42;4.67;;;1.13;;
19043;SDS011;9654;52.302;8.120;2022-10-16T11:16:21;4.63;;;0.90;;
19043;SDS011;9654;52.302;8.120;2022-10-16T11:18:55;5.17;;;1.43;;
19043;SDS011;9654;52.302;8.120;2022-10-16T11:21:26;5.57;;;1.07;;
19043;SDS011;9654;52.302;8.120;2022-10-16T11:23:57;3.20;;;1.33;;
19043;SDS011;9654;52.302;8.120;2022-10-16T11:26:30;3.80;;;1.13;;
19043;SDS011;9654;52.302;8.120;2022-10-16T11:29:00;2.73;;;1.20;;
19043;SDS011;9654;52.302;8.120;2022-10-16T11:31:32;3.57;;;1.20;;
19043;SDS011;9654;52.302;8.120;2022-10-16T11:34:06;4.53;;;1.30;;
19043;SDS011;9654;52.302;8.120;2022-10-16T11:36:42;2.97;;;1.00;;
19043;SDS011;9654;52.302;8.120;2022-10-16T11:39:17;3.23;;;1.20;;
19043;SDS011;9654;52.302;8.120;2022-10-16T11:41:47;7.13;;;1.43;;
19043;SDS011;9654;52.302;8.120;2022-10-16T11:44:19;4.67;;;1.47;;
19043;SDS011;9654;52.302;8.120;2022-10-16T11:46:58;6.70;;;1.37;;
19043;SDS011;9654;52.302;8.120;2022-10-16T11:49:34;8.57;;;2.43;;
19043;SDS011;9654;52.302;8.120;2022-10-16T11:52:06;4.57;;;1.70;;
19043;SDS011;9654;52.302;8.120;2022-10-16T11:54:39;6.73;;;3.10;;
19043;SDS011;9654;52.302;8.120;2022-10-16T11:57:12;5.40;;;2.77;;
19043;SDS011;9654;52.302;8.120;2022-10-16T11:59:44;5.30;;;2.63;;
19043;SDS011;9654;52.302;8.120;2022-10-16T12:05:12;4.50;;;2.00;;
19043;SDS011;9654;52.302;8.120;2022-10-16T12:07:48;3.67;;;2.27;;
19043;SDS011;9654;52.302;8.120;2022-10-16T12:10:20;6.77;;;2.67;;
19043;SDS011;9654;52.302;8.120;2022-10-16T12:12:49;10.77;;;3.43;;
19043;SDS011;9654;52.302;8.120;2022-10-16T12:15:21;3.30;;;2.03;;
19043;SDS011;9654;52.302;8.120;2022-10-16T12:17:50;8.60;;;2.10;;
19043;SDS011;9654;52.302;8.120;2022-10-16T12:20:23;7.10;;;2.10;;
19043;SDS011;9654;52.302;8.120;2022-10-16T12:22:56;6.40;;;2.23;;
19043;SDS011;9654;52.302;8.120;2022-10-16T12:25:26;3.63;;;2.07;;
19043;SDS011;9654;52.302;8.120;2022-10-16T12:27:55;2.67;;;1.80;;
19043;SDS011;9654;52.302;8.120;2022-10-16T12:30:28;8.53;;;2.37;;
19043;SDS011;9654;52.302;8.120;2022-10-16T12:32:57;3.50;;;1.60;;
19043;SDS011;9654;52.302;8.120;2022-10-16T12:35:28;5.03;;;2.00;;
19043;SDS011;9654;52.302;8.120;2022-10-16T12:38:04;6.77;;;3.37;;
19043;SDS011;9654;52.302;8.120;2022-10-16T12:40:41;5.93;;;2.47;;
19043;SDS011;9654;52.302;8.120;2022-10-16T12:46:20;10.47;;;5.13;;
19043;SDS011;9654;52.302;8.120;2022-10-16T12:48:49;4.20;;;1.93;;
19043;SDS011;9654;52.302;8.120;2022-10-16T12:51:24;16.63;;;6.77;;
19043;SDS011;9654;52.302;8.120;2022-10-16T12:53:59;9.13;;;3.63;;
19043;SDS011;9654;52.302;8.120;2022-10-16T12:56:30;4.07;;;1.70;;
19043;SDS011;9654;52.302;8.120;2022-10-16T12:59:09;18.97;;;5.53;;
19043;SDS011;9654;52.302;8.120;2022-10-16T13:01:50;5.53;;;4.73;;
19043;SDS011;9654;52.302;8.120;2022-10-16T13:04:31;4.73;;;2.47;;
19043;SDS011;9654;52.302;8.120;2022-10-16T13:07:17;2.40;;;1.73;;
19043;SDS011;9654;52.302;8.120;2022-10-16T13:10:00;8.03;;;2.20;;
19043;SDS011;9654;52.302;8.120;2022-10-16T13:12:47;9.37;;;2.03;;
19043;SDS011;9654;52.302;8.120;2022-10-16T13:15:25;6.00;;;1.30;;
19043;SDS011;9654;52.302;8.120;2022-10-16T13:18:03;3.70;;;1.27;;
19043;SDS011;9654;52.302;8.120;2022-10-16T13:20:41;8.33;;;1.70;;
19043;SDS011;9654;52.302;8.120;2022-10-16T13:23:19;5.53;;;1.20;;
19043;SDS011;9654;52.302;8.120;2022-10-16T13:25:55;3.03;;;1.13;;
19043;SDS011;9654;52.302;8.120;2022-10-16T13:28:31;8.23;;;1.20;;
19043;SDS011;9654;52.302;8.120;2022-10-16T13:31:00;2.23;;;0.90;;
19043;SDS011;9654;52.302;8.120;2022-10-16T13:33:30;3.63;;;1.50;;
19043;SDS011;9654;52.302;8.120;2022-10-16T13:35:59;8.00;;;1.30;;
19043;SDS011;9654;52.302;8.120;2022-10-16T13:38:28;3.43;;;1.13;;
19043;SDS011;9654;52.302;8.120;2022-10-16T13:40:57;1.83;;;0.90;;
19043;SDS011;9654;52.302;8.120;2022-10-16T13:43:27;4.03;;;1.20;;
19043;SDS011;9654;52.302;8.120;2022-10-16T13:45:58;1.70;;;1.17;;
19043;SDS011;9654;52.302;8.120;2022-10-16T13:48:27;5.30;;;1.13;;
19043;SDS011;9654;52.302;8.120;2022-10-16T13:51:00;5.17;;;1.50;;
19043;SDS011;9654;52.302;8.120;2022-10-16T13:53:31;6.10;;;1.63;;
19043;SDS011;9654;52.302;8.120;2022-10-16T13:55:59;5.00;;;1.10;;
19043;SDS011;9654;52.302;8.120;2022-10-16T13:58:27;8.07;;;1.50;;
19043;SDS011;9654;52.302;8.120;2022-10-16T14:00:55;7.40;;;1.60;;
19043;SDS011;9654;52.302;8.120;2022-10-16T14:03:24;3.53;;;1.30;;
19043;SDS011;9654;52.302;8.120;2022-10-16T14:05:53;4.00;;;1.33;;
19043;SDS011;9654;52.302;8.120;2022-10-16T14:08:21;7.30;;;1.00;;
19043;SDS011;9654;52.302;8.120;2022-10-16T14:10:51;5.87;;;1.27;;
19043;SDS011;9654;52.302;8.120;2022-10-16T14:13:28;6.00;;;1.67;;
19043;SDS011;9654;52.302;8.120;2022-10-16T14:15:57;4.23;;;1.33;;
19043;SDS011;9654;52.302;8.120;2022-10-16T14:18:29;7.23;;;1.63;;
19043;SDS011;9654;52.302;8.120;2022-10-16T14:21:02;5.73;;;1.40;;
19043;SDS011;9654;52.302;8.120;2022-10-16T14:23:30;6.27;;;1.30;;
19043;SDS011;9654;52.302;8.120;2022-10-16T14:29:01;4.20;;;1.53;;
19043;SDS011;9654;52.302;8.120;2022-10-16T14:31:35;5.30;;;1.27;;
19043;SDS011;9654;52.302;8.120;2022-10-16T14:34:02;4.47;;;1.30;;
19043;SDS011;9654;52.302;8.120;2022-10-16T14:36:29;3.83;;;1.13;;
19043;SDS011;9654;52.302;8.120;2022-10-16T14:38:58;4.53;;;1.10;;
19043;SDS011;9654;52.302;8.120;2022-10-16T14:41:29;4.63;;;1.50;;
19043;SDS011;9654;52.302;8.120;2022-10-16T14:43:57;7.37;;;1.30;;
19043;SDS011;9654;52.302;8.120;2022-10-16T14:46:32;12.50;;;2.17;;
19043;SDS011;9654;52.302;8.120;2022-10-16T14:49:03;4.97;;;1.30;;
19043;SDS011;9654;52.302;8.120;2022-10-16T14:51:39;9.73;;;1.10;;
19043;SDS011;9654;52.302;8.120;2022-10-16T14:54:09;2.83;;;1.20;;
19043;SDS011;9654;52.302;8.120;2022-10-16T14:56:42;3.80;;;1.00;;
19043;SDS011;9654;52.302;8.120;2022-10-16T14:59:13;10.37;;;1.20;;
19043;SDS011;9654;52.302;8.120;2022-10-16T15:01:43;2.30;;;1.30;;
19043;SDS011;9654;52.302;8.120;2022-10-16T15:04:10;3.23;;;1.00;;
19043;SDS011;9654;52.302;8.120;2022-10-16T15:06:38;3.30;;;1.30;;
19043;SDS011;9654;52.302;8.120;2022-10-16T15:09:05;4.93;;;1.20;;
19043;SDS011;9654;52.302;8.120;2022-10-16T15:11:32;4.20;;;1.40;;
19043;SDS011;9654;52.302;8.120;2022-10-16T15:14:00;4.47;;;1.83;;
19043;SDS011;9654;52.302;8.120;2022-10-16T15:16:28;3.27;;;1.20;;
19043;SDS011;9654;52.302;8.120;2022-10-16T15:18:56;3.60;;;1.07;;
19043;SDS011;9654;52.302;8.120;2022-10-16T15:21:24;3.70;;;1.07;;